AirNav   Bose ProFlight Aviation Headset
 
 1222 users online  

1Y9 Paullina Municipal Airport
Paullina, Iowa, USA

GOING TO PAULLINA?


FAA INFORMATION EFFECTIVE 19 JULY 2018

Location

FAA Identifier: 1Y9
Lat/Long: 42-59-16.4000N / 095-39-52.1000W
42-59.273333N / 095-39.868333W
42.9878889 / -95.6644722
(estimated)
Elevation: 1385 ft. / 422 m (estimated)
Variation: 06E (1985)
From city: 1 mile E of PAULLINA, IA
Time zone: UTC -5 (UTC -6 during Standard Time)
Zip code: 51046

Airport Operations

Airport use: Open to the public
Activation date: 12/1964
Control tower: no
ARTCC: MINNEAPOLIS CENTER
FSS: FORT DODGE FLIGHT SERVICE STATION
NOTAMs facility: FOD (NOTAM-D service available)
Attendance: UNATNDD
Wind indicator: lighted
Segmented circle: no
Lights: ACTVT LIRL RY 17/35 - CTAF.

Airport Communications

CTAF: 122.9
WX AWOS-3 at SHL (15 nm NW): 119.775 (712-324-5159)
WX AWOS-3 at CKP (16 nm S): 119.225 (712-225-1088)
WX AWOS-3 at ORC (17 nm W): 127.825 (712-737-3193)

Nearby radio navigation aids

VOR radial/distance  VOR name  Freq  Var
SPWr238/22.8SPENCER VOR/DME110.0005E
OTGr177/39.7WORTHINGTON VOR/DME110.6008E

 
NDB name  Hdg/Dist  Freq  Var  ID
SIBLEY165/23.126905EISB .. ... -...
SIOUX CENTER106/24.636805ESOY ... --- -.--

Airport Services

Fuel available: 100LL
FOR FUEL CALL (712) 448-2522.
Parking: hangars and tiedowns
Airframe service: NONE
Powerplant service: NONE
Bottled oxygen: NONE
Bulk oxygen: NONE

Runway Information

Runway 17/35

Dimensions: 2800 x 28 ft. / 853 x 9 m
28 FT ASPH IN CENTER OF 120 FT WIDE TURF STRIP.
Surface: asphalt/turf, in fair condition
Runway edge lights: non-standard
NSTD LIRL; RY LGTS 60 FT FM CNTRLN.
Gradient: S
RUNWAY 17  RUNWAY 35
Latitude: 42-59.503995N42-59.042978N
Longitude: 095-39.864810W095-39.872625W
Elevation: 1373.0 ft.1381.0 ft.
Gradient: 0.3% UP
Traffic pattern: leftleft
Runway heading: 175 magnetic, 181 true355 magnetic, 001 true
Markings: basic, in fair conditionbasic, in fair condition
Obstructions: 19 ft. tree, 380 ft. from runway, 138 ft. right of centerline, 20:1 slope to clear
APCH SLOPE 11:1 TO DSPLCD THLD.
12 ft. road, 350 ft. from runway, 29:1 slope to clear

Airport Ownership and Management from official FAA records

Ownership: Publicly-owned
Owner: CITY OF PAULLINA
CITY HALL PO BOX 239
PAULLINA, IA 51046
Phone 712-949-3428
Manager: BRIAN FISCH
4217 ROOSEVELT AVE
PAULLINA, IA 51046
Phone 712-448-2522

Airport Operational Statistics

Aircraft based on the field: 7
Single engine airplanes: 7
    
Aircraft operations: avg 34/week *
57% transient general aviation
43% local general aviation
* for 12-month period ending 15 September 2017

Additional Remarks

NUMEROUS WINDMILLS 2 NM NORTH AND EAST OF AIRPORT

Instrument Procedures

There are no published instrument procedures at 1Y9.

Some nearby airports with instrument procedures:

KSHL - Sheldon Regional Airport (15 nm NW)
KCKP - Cherokee County Regional Airport (16 nm S)
KORC - Orange City Municipal Airport (17 nm W)
KSPW - Spencer Municipal Airport (23 nm NE)
KISB - Sibley Municipal Airport (23 nm N)
 
Loc | Ops | Rwys | IFR | FBO | Links
Com | Nav | Svcs | Stats | Notes


 
Area around 1Y9 (Paullina Municipal Airport)
 
Road maps at: MapQuest Bing Google
 
Aerial photo
WARNING: Photo may not be current or correct
Aerial photo of 1Y9 (Paullina Municipal Airport)
Photo by Mark Wismer
Photo taken 19-Jul-2010

Do you have a better or more recent aerial photo of Paullina Municipal Airport that you would like to share? If so, please send us your photo.

 
Sectional chart

 
Airport distance calculator
Flying to Paullina Municipal Airport? Find the distance to fly.

From to 1Y9

Sunrise and sunset
Times for 14-Aug-2018
 Local
(UTC-5)
 Zulu
(UTC)
Morning civil twilight05:5810:58
Sunrise06:2811:28
Sunset20:2601:26
Evening civil twilight20:5701:57

Current date and time
Zulu (UTC)  14-Aug-2018 23:17:06
Local (UTC-5)  14-Aug-2018 18:17:06
 
METAR
KSHL 
15nm NW 
142255Z AUTO 15011KT 5SM -RA SCT042 OVC048 20/19 A2991 RMK AO2 P0004
KCKP 
16nm S 
142255Z AUTO 01010KT 10SM SCT029 SCT039 BKN060 22/19 A2995 RMK AO2 T02210185
KORC 
18nm W 
142255Z AUTO 16004KT 10SM -RA SCT011 SCT110 21/19 A2996 RMK AO2 P0054
KSPW 
22nm NE 
142253Z AUTO 26003KT 10SM BKN110 22/19 A2994 RMK AO2 RAB23E44 SLP131 P0000 T02170189
KLRJ 
27nm SW 
142235Z AUTO 04014G20KT 010V070 BKN070 BKN110 27/22 A2992 RMK AO2
KSLB 
31nm SE 
142255Z AUTO 00000KT 10SM CLR 26/22 A2994 RMK AO2
TAF
KSUX 
48nm SW 
141911Z 1419/1518 14004KT P6SM VCTS SCT070CB BKN140 FM150000 VRB04KT P6SM BKN070 FM151000 35006KT 6SM BR BKN020
NOTAMs
Click for the latest NOTAMs
NOTAMs are issued by the DoD/FAA and will open in a separate window not controlled by AirNav.

 

 
 

FBO, Fuel Providers, and Aircraft Ground Support

  
 Business Name 
 
 Contact 
 
 Services / Description 
 
Fuel Prices
 
Comments
  
Paullina Municipal Airport 712-448-2522
no information available

If you are affiliated with Paullina Municipal Airport and would like to show here your services, contact info, web link, logo, and more, click here
100LL
PS $5.00 
 Updated 08-Mar-2016
 
   write
PS=Pump service
Update Fuel Prices
 

Would you like to see your business listed on this page?

 If your business provides an interesting product or service to pilots, flight crews, aircraft, or users of the Paullina Municipal Airport, you should consider listing it here.  To start the listing process, click on the button below
 
Add a business
 

Other Pages about Paullina Municipal Airport

Page from the Iowa Airport Directory
 
Update a link
 
Copyright © AirNav, LLC. All rights reserved. Privacy Policy  Contact